Main page
METAR-TAF:

METAR-TAF

Airports :

Brighton City Airport (Shoreham Airport)

Brighton, England

latitude: 50-50N, longitude: 000-17W, elevation: 2 m

Current weather observation

The report was made 3 hours and 18 minutes ago, at 17:50 UTC
Wind 3 kt from the Southeast
Temperature 15°C
Humidity 67%
Pressure 1019 hPa
Visibility: 6000 m
Few clouds at a height of 3500 ft

METAR: EGKA 201750Z 14003KT 6000 FEW035 15/09 Q1019

Time: 22:08 (21:08 UTC)

Forecast

The report was made 7 hours and 6 minutes ago, at 14:02 UTC
Forecast valid from 20 at 15 UTC to 20 at 18 UTC
Wind 5 kt from the South/Southeast
Visibility 10 km or more
Few clouds at a height of 2500 ft
Temporary
from 20 at 15 UTC to 20 at 18 UTC
Visibility: 5000 m
haze
Probability 40% :
Temporary
from 20 at 15 UTC to 20 at 18 UTC
Visibility: 4000 m

TAF: EGKA 201402Z 2015/2018 16005KT 9999 FEW025 TEMPO 2015/2018 5000 HZ PROB40 TEMPO 2015/2018 4000

Weather observations and forecasts of more than 4000 airports (METAR and TAF reports).

The available stations are represented by yellow and red dots on the map.

Hover mouse over dot to see the name of the station.

Then click to see weather observations and forecasts.

To change the map : click on the green buttons with a black cross to zoom in, on the green button with a dash to zoom out, or on the green arrows for adjacent maps.


METAR-TAF: